Time;durP1;ratioP1;P1;durP2;ratioP2;P2;SDS_P1;SDS_P2;PMS_P1;PMS_P2;Temp;Humidity;BMP_temperature;BMP_pressure;BME280_temperature;BME280_humidity;BME280_pressure;Samples;Min_cycle;Max_cycle;Signal;HPM_P1;HPM_P2
2023/11/17 00:00:35;;;;;;;0.40;0.40;;;;;;;5.90;100.00;100894.75;5053353;28;20431;-84
2023/11/17 00:03:03;;;;;;;0.40;0.40;;;;;;;5.90;100.00;100902.78;5053235;28;20036;-84
2023/11/17 00:05:29;;;;;;;0.40;0.40;;;;;;;5.98;100.00;100915.44;5020217;28;20122;-84
2023/11/17 00:07:54;;;;;;;0.40;0.40;;;;;;;6.05;100.00;100917.41;5036633;28;20145;-84
2023/11/17 00:10:20;;;;;;;0.40;0.40;;;;;;;6.14;100.00;100905.03;5036671;28;20473;-84
2023/11/17 00:12:46;;;;;;;0.40;0.40;;;;;;;6.20;100.00;100901.78;5053054;28;20040;-84
2023/11/17 00:15:14;;;;;;;0.40;0.40;;;;;;;6.21;100.00;100905.31;5020101;28;20129;-85
2023/11/17 00:17:42;;;;;;;0.40;0.40;;;;;;;6.20;100.00;100908.97;5020557;28;20090;-84
2023/11/17 00:20:08;;;;;;;0.40;0.40;;;;;;;6.19;100.00;100907.25;5052756;28;20526;-84
2023/11/17 00:22:34;;;;;;;0.40;0.40;;;;;;;6.22;100.00;100920.31;5036288;28;20029;-85
2023/11/17 00:25:04;;;;;;;0.40;0.40;;;;;;;6.11;100.00;100924.88;5052742;28;20040;-84
2023/11/17 00:27:37;;;;;;;0.40;0.40;;;;;;;5.93;100.00;100913.19;5052432;28;20090;-84
2023/11/17 00:30:13;;;;;;;0.40;0.40;;;;;;;5.78;100.00;100909.25;5037927;28;20029;-84
2023/11/17 00:32:38;;;;;;;0.30;0.30;;;;;;;5.67;100.00;100913.75;5036451;28;20033;-84
2023/11/17 00:35:10;;;;;;;0.40;0.40;;;;;;;5.64;100.00;100924.72;5036123;28;20044;-84
2023/11/17 00:37:38;;;;;;;0.40;0.40;;;;;;;5.63;100.00;100901.66;5052680;28;20036;-84
2023/11/17 00:40:07;;;;;;;0.40;0.40;;;;;;;5.60;100.00;100904.63;5038199;28;20025;-83
2023/11/17 00:42:33;;;;;;;0.40;0.40;;;;;;;5.59;100.00;100905.59;5026287;28;20033;-84
2023/11/17 00:45:02;;;;;;;0.40;0.40;;;;;;;5.63;100.00;100906.16;5040917;28;20099;-84
2023/11/17 00:47:28;;;;;;;0.40;0.40;;;;;;;5.65;100.00;100905.03;5052221;28;20468;-84
2023/11/17 00:49:54;;;;;;;0.40;0.40;;;;;;;5.72;100.00;100903.50;5052629;28;20029;-85
2023/11/17 00:52:20;;;;;;;0.40;0.40;;;;;;;5.80;100.00;100901.97;5019833;28;20386;-84
2023/11/17 00:54:47;;;;;;;0.40;0.40;;;;;;;5.96;100.00;100912.09;5036056;28;20029;-84
2023/11/17 00:57:13;;;;;;;0.43;0.43;;;;;;;6.13;100.00;100940.72;5052276;28;20091;-84
2023/11/17 00:59:39;;;;;;;0.40;0.40;;;;;;;6.21;100.00;100945.34;5036075;28;20467;-84
2023/11/17 01:02:05;;;;;;;0.40;0.40;;;;;;;6.22;100.00;100947.03;5035958;28;20047;-84
2023/11/17 01:04:31;;;;;;;0.45;0.45;;;;;;;6.24;100.00;100953.06;5052302;28;20036;-84
2023/11/17 01:06:58;;;;;;;0.40;0.40;;;;;;;6.24;100.00;100945.91;5019183;28;20087;-84
2023/11/17 01:09:26;;;;;;;0.40;0.40;;;;;;;6.19;100.00;100939.31;5003289;28;20037;-84
2023/11/17 01:11:55;;;;;;;0.40;0.40;;;;;;;6.14;100.00;100935.25;5035832;28;20087;-84
2023/11/17 01:14:21;;;;;;;0.40;0.40;;;;;;;6.06;100.00;100928.91;5020345;28;20028;-83
2023/11/17 01:16:48;;;;;;;0.40;0.40;;;;;;;6.10;100.00;100938.34;5035706;28;20403;-83
2023/11/17 01:19:17;;;;;;;0.50;0.50;;;;;;;6.09;100.00;100932.16;5036085;28;20033;-84
2023/11/17 01:21:45;;;;;;;0.45;0.45;;;;;;;6.16;100.00;100935.94;5035803;28;20124;-84
2023/11/17 01:24:11;;;;;;;0.40;0.40;;;;;;;6.11;100.00;100930.19;5035602;28;20036;-84
2023/11/17 01:26:37;;;;;;;0.40;0.40;;;;;;;6.02;100.00;100928.38;5054638;28;20036;-83
2023/11/17 01:29:04;;;;;;;0.40;0.40;;;;;;;5.87;100.00;100932.41;5023337;28;20045;-83
2023/11/17 01:31:31;;;;;;;0.40;0.40;;;;;;;5.76;100.00;100937.91;5039423;28;20498;-84
2023/11/17 01:33:56;;;;;;;0.40;0.40;;;;;;;5.66;100.00;100933.41;5023323;28;20135;-83
2023/11/17 01:36:22;;;;;;;0.43;0.43;;;;;;;5.67;100.00;100929.75;5039036;28;20081;-84
2023/11/17 01:38:52;;;;;;;0.40;0.40;;;;;;;5.73;100.00;100939.84;5039344;28;20036;-84
2023/11/17 01:41:28;;;;;;;0.40;0.40;;;;;;;5.76;100.00;100938.75;5039903;28;20546;-84
2023/11/17 01:44:10;;;;;;;0.50;0.50;;;;;;;5.69;100.00;100949.16;5027675;28;20127;-84
2023/11/17 01:46:36;;;;;;;0.40;0.40;;;;;;;5.56;100.00;100947.69;5022600;28;20127;-84
2023/11/17 01:49:02;;;;;;;0.40;0.40;;;;;;;5.42;100.00;100946.28;5039394;28;20037;-84
2023/11/17 01:51:28;;;;;;;0.40;0.40;;;;;;;5.41;100.00;100939.28;5039092;28;20522;-84
2023/11/17 01:53:53;;;;;;;0.40;0.40;;;;;;;5.47;100.00;100939.56;5022409;28;20024;-84
2023/11/17 01:56:20;;;;;;;0.40;0.40;;;;;;;5.51;100.00;100948.97;5039488;28;20040;-84
2023/11/17 01:58:50;;;;;;;0.40;0.40;;;;;;;5.41;100.00;100950.78;5039174;28;20502;-85
2023/11/17 02:01:15;;;;;;;0.40;0.40;;;;;;;5.33;100.00;100960.47;5033627;28;20036;-84
2023/11/17 02:03:42;;;;;;;0.40;0.40;;;;;;;5.29;100.00;100967.88;5022143;28;20098;-84
2023/11/17 02:06:41;;;;;;;0.40;0.40;;;;;;;5.20;100.00;100964.19;5023309;28;20079;-83
2023/11/17 02:09:25;;;;;;;0.40;0.40;;;;;;;5.00;100.00;100970.44;5038613;28;20021;-84
2023/11/17 02:12:04;;;;;;;0.50;0.50;;;;;;;4.84;100.00;100957.59;5056228;28;20036;-84
2023/11/17 02:14:32;;;;;;;0.40;0.40;;;;;;;4.72;100.00;100951.53;5022712;28;20029;-84
2023/11/17 02:17:00;;;;;;;0.40;0.40;;;;;;;4.79;100.00;100965.16;5054752;28;20036;-84
2023/11/17 02:19:42;;;;;;;0.40;0.40;;;;;;;4.92;100.00;100967.59;5038909;28;20036;-84
2023/11/17 02:22:14;;;;;;;0.40;0.40;;;;;;;4.95;100.00;100964.66;5055458;28;20545;-85
2023/11/17 02:25:10;;;;;;;0.40;0.40;;;;;;;4.93;100.00;100980.81;5038931;28;20032;-83
2023/11/17 02:27:51;;;;;;;0.40;0.40;;;;;;;4.74;100.00;100973.56;5038821;28;20092;-85
2023/11/17 02:30:19;;;;;;;0.50;0.50;;;;;;;4.48;100.00;100978.47;5022132;28;20029;-84
2023/11/17 02:32:50;;;;;;;0.50;0.50;;;;;;;4.30;100.00;100977.38;5038563;28;20035;-84
2023/11/17 02:35:16;;;;;;;0.40;0.40;;;;;;;4.13;100.00;100984.13;5022276;28;20056;-84
2023/11/17 02:37:43;;;;;;;0.40;0.40;;;;;;;4.04;100.00;100987.53;5021554;28;20045;-83
2023/11/17 02:40:18;;;;;;;0.40;0.40;;;;;;;3.93;100.00;100989.28;5054773;28;20482;-84
2023/11/17 02:42:47;;;;;;;0.40;0.40;;;;;;;3.93;100.00;100991.09;5039665;28;20120;-84
2023/11/17 02:45:25;;;;;;;0.40;0.40;;;;;;;3.90;100.00;100986.88;5055007;28;20188;-84
2023/11/17 02:47:57;;;;;;;0.50;0.50;;;;;;;3.84;100.00;100991.88;5022670;28;20123;-83
2023/11/17 02:50:34;;;;;;;0.40;0.40;;;;;;;3.68;100.00;100984.31;5021965;28;20032;-83
2023/11/17 02:53:23;;;;;;;0.40;0.40;;;;;;;3.61;100.00;100973.31;5023452;28;20037;-83
2023/11/17 02:55:57;;;;;;;0.40;0.40;;;;;;;3.63;100.00;100992.66;5031237;28;20033;-83
2023/11/17 02:58:24;;;;;;;0.40;0.40;;;;;;;3.60;100.00;100995.56;5025524;28;20035;-83
2023/11/17 03:00:51;;;;;;;0.40;0.40;;;;;;;3.56;100.00;100993.28;5054538;28;20111;-83
2023/11/17 03:03:22;;;;;;;0.40;0.40;;;;;;;3.52;100.00;101000.66;5054606;28;20035;-83
2023/11/17 03:05:58;;;;;;;0.40;0.40;;;;;;;3.51;100.00;101012.25;5038668;28;20061;-83
2023/11/17 03:08:25;;;;;;;0.40;0.40;;;;;;;3.54;100.00;101014.66;5055854;28;20028;-83
2023/11/17 03:10:50;;;;;;;0.40;0.40;;;;;;;3.49;100.00;101001.75;5053896;28;20051;-83
2023/11/17 03:13:18;;;;;;;0.40;0.40;;;;;;;3.45;100.00;100999.47;5021169;28;20380;-84
2023/11/17 03:15:46;;;;;;;0.40;0.40;;;;;;;3.42;100.00;101007.69;5021753;28;20037;-83
2023/11/17 03:18:14;;;;;;;0.40;0.40;;;;;;;3.29;100.00;101011.31;5054719;28;20043;-84
2023/11/17 03:20:40;;;;;;;0.40;0.40;;;;;;;3.21;100.00;101012.91;5038237;28;20028;-84
2023/11/17 03:23:05;;;;;;;0.40;0.40;;;;;;;3.14;100.00;101017.84;5021165;28;20099;-83
2023/11/17 03:25:34;;;;;;;0.50;0.50;;;;;;;3.06;100.00;101009.63;5037353;28;20090;-83
2023/11/17 03:28:03;;;;;;;0.40;0.40;;;;;;;2.94;100.00;101011.47;5021346;28;20509;-84
2023/11/17 03:30:29;;;;;;;0.50;0.50;;;;;;;3.00;100.00;101004.81;5053786;28;20472;-83
2023/11/17 03:32:54;;;;;;;0.40;0.40;;;;;;;3.00;100.00;101015.44;5037308;28;20108;-83
2023/11/17 03:35:20;;;;;;;0.40;0.40;;;;;;;3.11;100.00;101004.81;5020977;28;20090;-83
2023/11/17 03:37:50;;;;;;;0.43;0.43;;;;;;;3.16;100.00;100986.69;5054995;28;20108;-83
2023/11/17 03:40:17;;;;;;;0.50;0.50;;;;;;;3.44;100.00;101008.38;5021311;28;20037;-83
2023/11/17 03:42:43;;;;;;;0.40;0.40;;;;;;;3.63;100.00;101013.09;5020974;28;20032;-83
2023/11/17 03:45:15;;;;;;;0.40;0.40;;;;;;;3.87;100.00;101024.38;5037253;28;20178;-83
2023/11/17 03:47:43;;;;;;;0.40;0.40;;;;;;;4.06;100.00;101023.69;5037610;28;20045;-83
2023/11/17 03:50:13;;;;;;;0.40;0.40;;;;;;;4.23;100.00;101027.59;5053200;28;20132;-84
2023/11/17 03:52:42;;;;;;;0.40;0.40;;;;;;;4.25;100.00;101004.38;5021288;28;20516;-83
2023/11/17 03:55:09;;;;;;;0.40;0.40;;;;;;;4.38;100.00;101021.00;5053215;28;20494;-85
2023/11/17 03:57:37;;;;;;;0.40;0.40;;;;;;;4.47;100.00;101022.03;5037080;28;20091;-84
2023/11/17 04:00:05;;;;;;;0.50;0.50;;;;;;;4.53;100.00;101028.69;5021044;28;20037;-85
2023/11/17 04:02:32;;;;;;;0.40;0.40;;;;;;;4.46;100.00;101031.00;5036884;28;20460;-85
2023/11/17 04:04:58;;;;;;;0.50;0.50;;;;;;;4.34;100.00;101046.19;5020382;28;20116;-85
2023/11/17 04:07:26;;;;;;;0.43;0.43;;;;;;;4.20;100.00;101054.47;5036356;28;20025;-85
2023/11/17 04:09:52;;;;;;;0.43;0.43;;;;;;;3.93;100.00;101047.81;5020221;28;20029;-85
2023/11/17 04:12:19;;;;;;;0.50;0.50;;;;;;;3.63;100.00;101043.19;5020723;28;20044;-85
2023/11/17 04:14:45;;;;;;;0.50;0.50;;;;;;;3.37;100.00;101053.22;5036671;28;20376;-84
2023/11/17 04:17:14;;;;;;;0.50;0.50;;;;;;;3.21;100.00;101053.59;5020065;28;20043;-84
2023/11/17 04:19:43;;;;;;;0.40;0.40;;;;;;;3.28;100.00;101064.56;5019905;28;20458;-84
2023/11/17 04:22:09;;;;;;;0.50;0.50;;;;;;;3.16;100.00;101065.56;5020447;28;20041;-84
2023/11/17 04:24:43;;;;;;;0.40;0.40;;;;;;;2.97;100.00;101063.50;5037629;28;20029;-85
2023/11/17 04:27:10;;;;;;;0.40;0.40;;;;;;;2.83;100.00;101064.53;5052656;28;20091;-84
2023/11/17 04:29:39;;;;;;;0.40;0.40;;;;;;;2.65;100.00;101053.56;5020026;28;20041;-85
2023/11/17 04:32:07;;;;;;;0.40;0.40;;;;;;;2.56;100.00;101057.72;5037085;28;20086;-85
2023/11/17 04:34:33;;;;;;;0.40;0.40;;;;;;;2.57;100.00;101059.44;5020417;28;20033;-84
2023/11/17 04:36:58;;;;;;;0.40;0.40;;;;;;;2.62;100.00;101057.28;5035970;28;20081;-85
2023/11/17 04:39:24;;;;;;;0.50;0.50;;;;;;;2.51;100.00;101046.63;5019940;28;20387;-84
2023/11/17 04:41:51;;;;;;;0.40;0.40;;;;;;;2.47;100.00;101052.28;5035544;28;20116;-83
2023/11/17 04:44:18;;;;;;;0.40;0.40;;;;;;;2.42;100.00;101049.97;5035820;28;20056;-83
2023/11/17 04:46:44;;;;;;;0.50;0.50;;;;;;;2.40;100.00;101050.09;5035890;28;20471;-83
2023/11/17 04:49:12;;;;;;;0.40;0.40;;;;;;;2.56;100.00;101054.25;5036133;28;20041;-81
2023/11/17 04:51:44;;;;;;;0.45;0.45;;;;;;;2.68;100.00;101057.78;5036665;28;20033;-83
2023/11/17 04:54:14;;;;;;;0.40;0.40;;;;;;;2.88;100.00;101065.03;5053547;28;20033;-83
2023/11/17 04:56:41;;;;;;;0.40;0.40;;;;;;;3.07;100.00;101067.97;5036092;28;20040;-83
2023/11/17 04:59:13;;;;;;;0.40;0.40;;;;;;;3.41;100.00;101072.44;5019645;28;20025;-83
2023/11/17 05:01:41;;;;;;;0.40;0.40;;;;;;;3.83;100.00;101068.13;5036358;28;20069;-83
2023/11/17 05:04:07;;;;;;;0.50;0.50;;;;;;;4.11;100.00;101065.91;5035880;28;20087;-82
2023/11/17 05:06:35;;;;;;;0.40;0.40;;;;;;;4.31;100.00;101051.78;5037081;28;20045;-82
2023/11/17 05:09:01;;;;;;;0.50;0.50;;;;;;;4.32;100.00;101057.94;5021913;28;20025;-83
2023/11/17 05:11:30;;;;;;;0.40;0.40;;;;;;;4.13;100.00;101053.31;5019536;28;20031;-84
2023/11/17 05:13:56;;;;;;;0.40;0.40;;;;;;;3.97;100.00;101057.22;5052481;28;20044;-83
2023/11/17 05:16:22;;;;;;;0.40;0.40;;;;;;;3.85;100.00;101060.03;5019145;28;20044;-84
2023/11/17 05:18:48;;;;;;;0.40;0.40;;;;;;;3.68;100.00;101059.59;5019526;28;20037;-83
2023/11/17 05:21:13;;;;;;;0.40;0.40;;;;;;;3.53;100.00;101069.66;5018963;28;20037;-83
2023/11/17 05:23:39;;;;;;;0.50;0.50;;;;;;;3.40;100.00;101066.28;5019283;28;20029;-83
2023/11/17 05:26:07;;;;;;;0.50;0.50;;;;;;;3.30;100.00;101067.97;5019250;28;20036;-83
2023/11/17 05:28:33;;;;;;;0.40;0.40;;;;;;;3.25;100.00;101072.78;5019682;28;20033;-84
2023/11/17 05:31:02;;;;;;;0.40;0.40;;;;;;;3.15;100.00;101071.81;5035173;28;20058;-83
2023/11/17 05:33:29;;;;;;;0.40;0.40;;;;;;;3.07;100.00;101070.63;5019270;28;20036;-84
2023/11/17 05:35:58;;;;;;;0.50;0.50;;;;;;;2.97;100.00;101080.28;5003165;28;20037;-84
2023/11/17 05:38:26;;;;;;;0.45;0.45;;;;;;;2.89;100.00;101076.53;5019859;28;20498;-83
2023/11/17 05:40:52;;;;;;;0.50;0.50;;;;;;;2.78;100.00;101075.53;5035785;28;20117;-83
2023/11/17 05:43:18;;;;;;;0.40;0.40;;;;;;;2.70;100.00;101085.03;5018944;28;20124;-83
2023/11/17 05:45:45;;;;;;;0.40;0.40;;;;;;;2.68;100.00;101087.00;5051756;28;20104;-83
2023/11/17 05:48:11;;;;;;;0.40;0.40;;;;;;;2.63;100.00;101074.91;5035698;28;20083;-83
2023/11/17 05:50:37;;;;;;;0.50;0.50;;;;;;;2.63;100.00;101079.38;5035025;28;20033;-83
2023/11/17 05:53:02;;;;;;;0.40;0.40;;;;;;;2.80;100.00;101084.22;5002709;28;20037;-83
2023/11/17 05:55:28;;;;;;;0.40;0.40;;;;;;;2.93;100.00;101089.44;5019131;28;20033;-84
2023/11/17 05:57:54;;;;;;;0.40;0.40;;;;;;;2.96;100.00;101091.00;5051666;28;20029;-84
2023/11/17 06:00:20;;;;;;;0.40;0.40;;;;;;;2.92;100.00;101094.88;5018758;28;20083;-84
2023/11/17 06:02:46;;;;;;;0.40;0.40;;;;;;;2.77;100.00;101091.59;5035379;28;20041;-83
2023/11/17 06:05:14;;;;;;;0.50;0.50;;;;;;;2.77;100.00;101094.25;5051700;28;20021;-84
2023/11/17 06:07:41;;;;;;;0.40;0.40;;;;;;;2.67;100.00;101098.56;5035359;28;20029;-84
2023/11/17 06:10:08;;;;;;;0.40;0.40;;;;;;;2.55;100.00;101093.22;5035250;28;20040;-84
2023/11/17 06:12:34;;;;;;;0.40;0.40;;;;;;;2.53;100.00;101096.94;5037823;28;20032;-84
2023/11/17 06:15:01;;;;;;;0.43;0.43;;;;;;;2.44;100.00;101089.69;5022230;28;20071;-84
2023/11/17 06:17:30;;;;;;;0.40;0.40;;;;;;;2.23;100.00;101097.44;5006644;28;20075;-83
2023/11/17 06:20:00;;;;;;;0.40;0.40;;;;;;;2.14;100.00;101101.59;5038643;28;20029;-84
2023/11/17 06:22:31;;;;;;;0.40;0.40;;;;;;;1.96;100.00;101109.97;5055279;28;20480;-83
2023/11/17 06:24:59;;;;;;;0.50;0.50;;;;;;;1.84;100.00;101110.84;5022233;28;20048;-84
2023/11/17 06:27:27;;;;;;;0.40;0.40;;;;;;;1.82;100.00;101109.25;5038329;28;20061;-83
2023/11/17 06:29:53;;;;;;;0.40;0.40;;;;;;;1.74;100.00;101113.28;5038943;28;20036;-83
2023/11/17 06:32:22;;;;;;;0.40;0.40;;;;;;;1.58;100.00;101125.13;5038752;28;20063;-84
2023/11/17 06:34:50;;;;;;;0.50;0.50;;;;;;;1.45;100.00;101138.38;5039757;28;20032;-84
2023/11/17 06:37:17;;;;;;;0.47;0.47;;;;;;;1.31;100.00;101128.75;5038506;28;20438;-84
2023/11/17 06:39:43;;;;;;;0.40;0.40;;;;;;;1.25;100.00;101137.97;5022124;28;20033;-84
2023/11/17 06:42:09;;;;;;;0.40;0.40;;;;;;;1.30;100.00;101127.06;5037929;28;20029;-85
2023/11/17 06:44:38;;;;;;;0.40;0.40;;;;;;;1.25;100.00;101124.72;5038311;28;20381;-84
2023/11/17 06:47:03;;;;;;;0.50;0.50;;;;;;;1.25;100.00;101124.72;5021814;28;20468;-84
2023/11/17 06:49:29;;;;;;;0.40;0.40;;;;;;;1.29;100.00;101120.91;5038118;28;20032;-84
2023/11/17 06:51:56;;;;;;;0.50;0.50;;;;;;;1.39;100.00;101113.16;5021588;28;20044;-83
2023/11/17 06:54:23;;;;;;;0.50;0.50;;;;;;;1.35;100.00;101114.34;5054452;28;20029;-84
2023/11/17 06:56:50;;;;;;;0.50;0.50;;;;;;;1.18;100.00;101118.16;5054714;28;20025;-84
2023/11/17 06:59:22;;;;;;;0.40;0.40;;;;;;;1.02;100.00;101109.56;5038572;28;20044;-84
2023/11/17 07:01:50;;;;;;;0.40;0.40;;;;;;;1.01;100.00;101110.53;5054179;28;20087;-84
2023/11/17 07:04:16;;;;;;;0.50;0.50;;;;;;;0.98;100.00;101110.72;5022057;28;20120;-84
2023/11/17 07:06:42;;;;;;;0.50;0.50;;;;;;;0.94;100.00;101109.25;5005458;28;20091;-84
2023/11/17 07:09:16;;;;;;;0.40;0.40;;;;;;;0.94;100.00;101119.84;5054021;28;20083;-84
2023/11/17 07:11:49;;;;;;;0.40;0.40;;;;;;;0.91;100.00;101109.47;5054046;28;20063;-84
2023/11/17 07:14:18;;;;;;;0.40;0.40;;;;;;;0.83;100.00;101116.13;5054322;28;20033;-84
2023/11/17 07:16:46;;;;;;;0.50;0.50;;;;;;;0.71;100.00;101103.72;5054591;28;20029;-84
2023/11/17 07:19:16;;;;;;;0.40;0.40;;;;;;;0.84;100.00;101114.31;5021754;28;20048;-83
2023/11/17 07:21:43;;;;;;;0.50;0.50;;;;;;;0.80;100.00;101111.06;5041260;28;20415;-83
2023/11/17 07:24:11;;;;;;;0.40;0.40;;;;;;;0.79;100.00;101111.97;5006150;28;20029;-83
2023/11/17 07:26:37;;;;;;;0.40;0.40;;;;;;;0.84;100.00;101109.88;5037432;28;20088;-84
2023/11/17 07:29:04;;;;;;;0.43;0.43;;;;;;;0.92;100.00;101108.50;5021248;28;20037;-84
2023/11/17 07:31:37;;;;;;;0.40;0.40;;;;;;;0.76;100.00;101092.81;5037273;28;20029;-83
2023/11/17 07:34:15;;;;;;;0.50;0.50;;;;;;;0.75;100.00;101118.44;5022079;28;20103;-84
2023/11/17 07:36:44;;;;;;;0.40;0.40;;;;;;;0.60;100.00;101122.97;5054066;28;20494;-84
2023/11/17 07:39:12;;;;;;;0.40;0.40;;;;;;;0.54;100.00;101128.69;5021392;28;20041;-83
2023/11/17 07:41:42;;;;;;;0.40;0.40;;;;;;;0.55;100.00;101125.06;5019754;28;20186;-83
2023/11/17 07:44:08;;;;;;;0.43;0.43;;;;;;;0.70;100.00;101115.25;5052818;28;20037;-83
2023/11/17 07:46:40;;;;;;;0.40;0.40;;;;;;;0.74;100.00;101124.72;5020641;28;20414;-83
2023/11/17 07:49:06;;;;;;;0.40;0.40;;;;;;;0.81;100.00;101133.06;5037256;28;20094;-83
2023/11/17 07:51:35;;;;;;;0.50;0.50;;;;;;;0.76;100.00;101125.44;5036740;28;20025;-83
2023/11/17 07:54:01;;;;;;;0.50;0.50;;;;;;;0.64;100.00;101121.81;5020914;28;20036;-83
2023/11/17 07:56:29;;;;;;;0.50;0.50;;;;;;;0.45;100.00;101113.44;5021452;28;20120;-83
2023/11/17 07:58:56;;;;;;;0.50;0.50;;;;;;;0.28;100.00;101114.53;5037422;28;20083;-83
2023/11/17 08:01:23;;;;;;;0.50;0.50;;;;;;;0.26;100.00;101121.72;5019905;28;20029;-83
2023/11/17 08:03:49;;;;;;;0.40;0.40;;;;;;;0.26;100.00;101129.63;5036872;28;20040;-84
2023/11/17 08:06:15;;;;;;;0.50;0.50;;;;;;;0.26;100.00;101127.00;5054182;28;20033;-82
2023/11/17 08:08:41;;;;;;;0.50;0.50;;;;;;;0.33;100.00;101120.38;5037048;28;20032;-83
2023/11/17 08:11:09;;;;;;;0.50;0.50;;;;;;;0.45;100.00;101134.59;5038489;28;20074;-83
2023/11/17 08:13:37;;;;;;;0.50;0.50;;;;;;;0.54;100.00;101130.47;5060766;28;20112;-83
2023/11/17 08:16:09;;;;;;;0.50;0.50;;;;;;;0.53;100.00;101145.50;5037361;28;20033;-84
2023/11/17 08:18:51;;;;;;;0.50;0.50;;;;;;;0.51;100.00;101130.69;5024352;28;20037;-82
2023/11/17 08:21:19;;;;;;;0.50;0.50;;;;;;;0.46;100.00;101136.28;5053824;28;20051;-83
2023/11/17 08:23:47;;;;;;;0.47;0.47;;;;;;;0.56;100.00;101133.88;5036529;28;20037;-84
2023/11/17 08:26:14;;;;;;;0.40;0.40;;;;;;;0.73;100.00;101138.03;5019963;28;20037;-84
2023/11/17 08:28:41;;;;;;;0.50;0.50;;;;;;;0.87;100.00;101137.94;5036281;28;20028;-83
2023/11/17 08:31:07;;;;;;;0.40;0.40;;;;;;;0.99;100.00;101139.75;5020192;28;20120;-83
2023/11/17 08:33:32;;;;;;;0.50;0.50;;;;;;;0.99;100.00;101145.06;5019608;28;20485;-84
2023/11/17 08:36:03;;;;;;;0.50;0.50;;;;;;;0.94;100.00;101138.38;5052709;28;20029;-84
2023/11/17 08:38:29;;;;;;;0.50;0.50;;;;;;;0.90;100.00;101144.81;5036214;28;20495;-84
2023/11/17 08:40:55;;;;;;;0.50;0.50;;;;;;;0.88;100.00;101142.31;5019989;28;20464;-83
2023/11/17 08:43:21;;;;;;;0.50;0.50;;;;;;;0.90;100.00;101148.34;5036428;28;20083;-84
2023/11/17 08:45:51;;;;;;;0.50;0.50;;;;;;;0.98;100.00;101147.78;5052507;28;20025;-85
2023/11/17 08:48:17;;;;;;;0.50;0.50;;;;;;;1.16;100.00;101151.84;5036819;28;20055;-83
2023/11/17 08:50:43;;;;;;;0.50;0.50;;;;;;;1.29;100.00;101149.19;5019551;28;20025;-83
2023/11/17 08:53:11;;;;;;;0.50;0.50;;;;;;;1.48;100.00;101156.72;5052244;28;20029;-84
2023/11/17 08:55:37;;;;;;;0.50;0.50;;;;;;;1.64;100.00;101157.34;5036468;28;20467;-84
2023/11/17 08:58:03;;;;;;;0.50;0.50;;;;;;;1.83;100.00;101167.50;5035303;28;20118;-84
2023/11/17 09:00:31;;;;;;;0.50;0.50;;;;;;;2.02;100.00;101172.31;5035394;28;20109;-84
2023/11/17 09:02:58;;;;;;;0.40;0.40;;;;;;;2.19;100.00;101174.56;5019398;28;20032;-84
2023/11/17 09:05:25;;;;;;;0.50;0.50;;;;;;;2.34;100.00;101169.13;5019439;28;20494;-84
2023/11/17 09:07:56;;;;;;;0.50;0.50;;;;;;;2.48;100.00;101170.75;5051766;28;20025;-83
2023/11/17 09:10:26;;;;;;;0.50;0.50;;;;;;;2.60;100.00;101173.38;5035959;28;20052;-84
2023/11/17 09:12:54;;;;;;;0.40;0.40;;;;;;;2.70;100.00;101176.19;5036262;28;20071;-84
2023/11/17 09:15:24;;;;;;;0.40;0.40;;;;;;;2.79;100.00;101177.28;5053456;28;20033;-83
2023/11/17 09:17:52;;;;;;;0.50;0.50;;;;;;;2.87;100.00;101185.53;5035344;28;20021;-84
2023/11/17 09:20:22;;;;;;;0.50;0.50;;;;;;;2.93;100.00;101192.19;5052059;28;20064;-85
2023/11/17 09:22:50;;;;;;;0.40;0.40;;;;;;;2.98;100.00;101190.88;5051958;28;20545;-85
2023/11/17 09:25:23;;;;;;;0.50;0.50;;;;;;;3.06;100.00;101195.59;5035754;28;20037;-85
2023/11/17 09:27:56;;;;;;;0.40;0.40;;;;;;;3.15;100.00;101183.44;5036593;28;20080;-84
2023/11/17 09:30:22;;;;;;;;;;;;;;;3.35;100.00;101187.22;5033705;28;20055;-84
2023/11/17 09:32:55;;;;;;;0.40;0.40;;;;;;;3.55;100.00;101196.28;5061732;28;19913;-86
2023/11/17 09:35:21;;;;;;;0.53;0.53;;;;;;;3.73;100.00;101195.72;5052703;28;20045;-84
2023/11/17 09:37:59;;;;;;;0.40;0.40;;;;;;;3.95;100.00;101204.66;5020054;28;20032;-85
2023/11/17 09:40:28;;;;;;;0.50;0.50;;;;;;;4.14;100.00;101210.19;5019693;28;20036;-84
2023/11/17 09:42:59;;;;;;;0.50;0.50;;;;;;;4.32;100.00;101202.53;5035737;28;20127;-84
2023/11/17 09:45:27;;;;;;;0.40;0.40;;;;;;;4.44;100.00;101192.69;5053629;28;20467;-87
2023/11/17 09:47:57;;;;;;;0.50;0.50;;;;;;;4.58;100.00;101192.44;5040498;28;20047;-85
2023/11/17 09:50:26;;;;;;;0.40;0.40;;;;;;;4.74;100.00;101186.69;5055678;28;20024;-83
2023/11/17 09:53:07;;;;;;;;;;;;;;;;;;;;;
2023/11/17 09:56:26;;;;;;;0.50;0.50;;;;;;;4.91;100.00;101171.94;5047381;28;20091;-85
2023/11/17 09:58:53;;;;;;;0.50;0.50;;;;;;;5.09;100.00;101180.22;5021397;28;20487;-86
2023/11/17 10:01:19;;;;;;;0.50;0.50;;;;;;;5.17;100.00;101177.72;5024118;28;20048;-86
2023/11/17 10:03:48;;;;;;;0.40;0.40;;;;;;;5.22;100.00;101162.19;5023703;28;20028;-85
2023/11/17 10:06:14;;;;;;;0.40;0.40;;;;;;;5.37;100.00;101183.19;5040695;28;20040;-85
2023/11/17 10:08:41;;;;;;;0.50;0.50;;;;;;;5.49;100.00;101184.81;5040599;28;20040;-86
2023/11/17 10:11:10;;;;;;;0.40;0.40;;;;;;;5.64;100.00;101172.81;5056438;28;20029;-85
2023/11/17 10:13:38;;;;;;;0.50;0.50;;;;;;;5.77;100.00;101172.59;5055725;28;20480;-86
2023/11/17 10:16:07;;;;;;;0.40;0.40;;;;;;;5.89;100.00;101170.66;5056090;28;20025;-86
2023/11/17 10:18:33;;;;;;;0.50;0.50;;;;;;;6.00;100.00;101169.72;5039263;28;20099;-86
2023/11/17 10:21:04;;;;;;;0.50;0.50;;;;;;;6.13;100.00;101173.84;5006787;28;20045;-84
2023/11/17 10:23:31;;;;;;;0.40;0.40;;;;;;;6.32;100.00;101170.34;5055318;28;20471;-85
2023/11/17 10:25:57;;;;;;;0.40;0.40;;;;;;;6.46;100.00;101165.63;5021906;28;20802;-85
2023/11/17 10:28:24;;;;;;;0.40;0.40;;;;;;;6.68;100.00;101176.03;5054452;28;20032;-85
2023/11/17 10:30:54;;;;;;;0.40;0.40;;;;;;;6.74;100.00;101158.59;5021864;28;20116;-86
2023/11/17 10:33:30;;;;;;;0.40;0.40;;;;;;;6.90;100.00;101164.19;5022546;28;20045;-86
2023/11/17 10:36:05;;;;;;;0.40;0.40;;;;;;;6.94;100.00;101167.44;5022060;28;20029;-86
2023/11/17 10:38:37;;;;;;;0.40;0.40;;;;;;;6.90;100.00;101174.88;5054710;28;20033;-87
2023/11/17 10:41:30;;;;;;;0.40;0.40;;;;;;;6.88;100.00;101176.00;5054682;28;20123;-86
2023/11/17 10:44:01;;;;;;;0.40;0.40;;;;;;;6.88;100.00;101171.53;5038304;28;20025;-87
2023/11/17 10:46:28;;;;;;;0.40;0.40;;;;;;;6.95;100.00;101183.34;5038458;28;20040;-86
2023/11/17 10:48:59;;;;;;;0.40;0.40;;;;;;;6.95;100.00;101177.16;5054422;28;20060;-86
2023/11/17 10:51:26;;;;;;;0.40;0.40;;;;;;;7.05;100.00;101176.16;5021393;28;20033;-86
2023/11/17 10:54:05;;;;;;;0.40;0.40;;;;;;;7.17;100.00;101175.97;5021703;28;20464;-86
2023/11/17 10:56:36;;;;;;;0.40;0.40;;;;;;;7.20;100.00;101171.22;5037585;28;20033;-86
2023/11/17 10:59:03;;;;;;;0.40;0.40;;;;;;;7.24;100.00;101171.75;5038062;28;20060;-84
2023/11/17 11:01:31;;;;;;;0.50;0.50;;;;;;;7.29;100.00;101174.00;5021198;28;20475;-85
2023/11/17 11:03:58;;;;;;;0.40;0.40;;;;;;;7.29;100.00;101174.00;5038269;28;20040;-85
2023/11/17 11:06:28;;;;;;;0.40;0.40;;;;;;;7.25;100.00;101160.94;5037720;28;20032;-85
2023/11/17 11:08:55;;;;;;;0.40;0.40;;;;;;;7.31;100.00;101164.00;5054517;28;20025;-85
2023/11/17 11:11:28;;;;;;;0.40;0.40;;;;;;;7.25;100.00;101157.38;5020718;28;20553;-85
2023/11/17 11:13:59;;;;;;;0.40;0.40;;;;;;;7.17;100.00;101155.47;5021432;28;20040;-84
2023/11/17 11:16:32;;;;;;;0.47;0.47;;;;;;;7.10;100.00;101146.31;5037741;28;20041;-87
2023/11/17 11:18:59;;;;;;;0.50;0.50;;;;;;;7.05;100.00;101141.38;5037642;28;20025;-81
2023/11/17 11:21:27;;;;;;;0.30;0.30;;;;;;;7.02;100.00;101141.69;5037205;28;20033;-81
2023/11/17 11:24:00;;;;;;;0.40;0.40;;;;;;;7.03;100.00;101139.84;5036836;28;20040;-81
2023/11/17 11:26:29;;;;;;;0.40;0.40;;;;;;;7.03;100.00;101147.88;5037216;28;20048;-83
2023/11/17 11:28:59;;;;;;;0.40;0.40;;;;;;;6.97;100.00;101141.25;5036975;28;20075;-82
2023/11/17 11:31:25;;;;;;;0.40;0.40;;;;;;;6.90;100.00;101137.47;5053863;28;20116;-83
2023/11/17 11:33:54;;;;;;;0.40;0.40;;;;;;;6.88;100.00;101134.13;5020618;28;20132;-82